Time;durP1;ratioP1;P1;durP2;ratioP2;P2;SDS_P1;SDS_P2;PMS_P1;PMS_P2;Temp;Humidity;BMP_temperature;BMP_pressure;BME280_temperature;BME280_humidity;BME280_pressure;Samples;Min_cycle;Max_cycle;Signal;HPM_P1;HPM_P2
2021/11/25 00:01:59;;;;;;;32.83;17.83;;;;;;;;;;5113957;27;20281;-78
2021/11/25 00:04:26;;;;;;;34.10;18.57;;;;;;;;;;5114088;27;20720;-79
2021/11/25 00:06:53;;;;;;;30.80;17.47;;;;;;;;;;5113566;27;20225;-78
2021/11/25 00:09:22;;;;;;;29.90;16.83;;;;;;;;;;5113861;28;20248;-78
2021/11/25 00:11:49;;;;;;;29.90;17.10;;;;;;;;;;5119379;27;20232;-78
2021/11/25 00:14:16;;;;;;;28.00;16.43;;;;;;;;;;5114044;27;20304;-79
2021/11/25 00:16:45;;;;;;;30.97;16.57;;;;;;;;;;5124159;27;20229;-78
2021/11/25 00:19:13;;;;;;;26.73;15.33;;;;;;;;;;5115934;27;20600;-79
2021/11/25 00:21:40;;;;;;;28.13;16.63;;;;;;;;;;5118611;27;20969;-79
2021/11/25 00:24:07;;;;;;;25.77;14.83;;;;;;;;;;5114049;27;20281;-78
2021/11/25 00:26:37;;;;;;;27.83;15.00;;;;;;;;;;5114764;27;20701;-79
2021/11/25 00:29:05;;;;;;;28.07;15.93;;;;;;;;;;5120080;27;20280;-78
2021/11/25 00:31:32;;;;;;;29.43;16.33;;;;;;;;;;5113973;27;20233;-79
2021/11/25 00:33:59;;;;;;;28.20;16.20;;;;;;;;;;5113250;28;20226;-79
2021/11/25 00:36:27;;;;;;;29.97;16.73;;;;;;;;;;5113927;27;20226;-79
2021/11/25 00:38:54;;;;;;;28.20;15.67;;;;;;;;;;5115229;27;20252;-79
2021/11/25 00:41:21;;;;;;;28.33;16.07;;;;;;;;;;5113922;27;20236;-79
2021/11/25 00:43:49;;;;;;;27.57;16.13;;;;;;;;;;5113328;28;20241;-79
2021/11/25 00:46:17;;;;;;;27.77;16.20;;;;;;;;;;5112593;28;20273;-79
2021/11/25 00:48:44;;;;;;;26.37;15.23;;;;;;;;;;5112983;28;20281;-79
2021/11/25 00:51:11;;;;;;;31.40;15.77;;;;;;;;;;5113026;28;20233;-79
2021/11/25 00:53:38;;;;;;;29.57;16.00;;;;;;;;;;5106139;28;20229;-78
2021/11/25 00:56:06;;;;;;;28.43;15.57;;;;;;;;;;5114216;27;20256;-79
2021/11/25 00:58:33;;;;;;;28.70;15.97;;;;;;;;;;5113024;27;20324;-79
2021/11/25 01:01:02;;;;;;;31.50;16.67;;;;;;;;;;5113836;28;20240;-78
2021/11/25 01:03:29;;;;;;;30.93;16.37;;;;;;;;;;5112895;27;20226;-78
2021/11/25 01:05:56;;;;;;;28.40;16.63;;;;;;;;;;5112828;28;20236;-79
2021/11/25 01:08:24;;;;;;;29.33;16.47;;;;;;;;;;5114172;27;20198;-78
2021/11/25 01:10:51;;;;;;;33.57;16.87;;;;;;;;;;5118592;27;20288;-78
2021/11/25 01:13:18;;;;;;;30.30;15.87;;;;;;;;;;5113075;28;20298;-78
2021/11/25 01:15:45;;;;;;;28.23;15.63;;;;;;;;;;5111293;27;20252;-79
2021/11/25 01:18:17;;;;;;;29.33;16.13;;;;;;;;;;5114552;27;20236;-79
2021/11/25 01:20:47;;;;;;;26.63;15.17;;;;;;;;;;5115228;27;20221;-79
2021/11/25 01:23:16;;;;;;;27.57;16.13;;;;;;;;;;5115831;27;20240;-78
2021/11/25 01:25:44;;;;;;;28.73;14.93;;;;;;;;;;5112340;27;20696;-78
2021/11/25 01:28:13;;;;;;;30.97;15.63;;;;;;;;;;5112622;27;20225;-78
2021/11/25 01:30:40;;;;;;;27.23;15.30;;;;;;;;;;5111742;27;20217;-79
2021/11/25 01:33:08;;;;;;;28.73;15.40;;;;;;;;;;5112500;27;20233;-79
2021/11/25 01:35:37;;;;;;;29.77;15.77;;;;;;;;;;5114774;27;20216;-78
2021/11/25 01:38:06;;;;;;;27.83;15.53;;;;;;;;;;5116493;27;20229;-79
2021/11/25 01:40:33;;;;;;;28.10;15.57;;;;;;;;;;5112728;28;20280;-79
2021/11/25 01:43:00;;;;;;;26.57;14.87;;;;;;;;;;5112302;27;20230;-79
2021/11/25 01:45:28;;;;;;;29.60;15.30;;;;;;;;;;5112662;28;20205;-79
2021/11/25 01:47:56;;;;;;;23.40;13.60;;;;;;;;;;5112766;27;20190;-78
2021/11/25 01:50:24;;;;;;;24.97;14.53;;;;;;;;;;5114215;27;20198;-79
2021/11/25 01:52:54;;;;;;;24.47;14.30;;;;;;;;;;5116679;27;20229;-79
2021/11/25 01:55:21;;;;;;;23.57;13.70;;;;;;;;;;5112449;28;20249;-78
2021/11/25 01:57:50;;;;;;;25.40;13.80;;;;;;;;;;5111949;28;20193;-79
2021/11/25 02:00:26;;;;;;;25.63;14.47;;;;;;;;;;5111064;28;20271;-79
2021/11/25 02:02:54;;;;;;;26.80;14.93;;;;;;;;;;5111930;27;20639;-78
2021/11/25 02:05:22;;;;;;;26.97;14.70;;;;;;;;;;5116840;27;20255;-78
2021/11/25 02:07:49;;;;;;;22.30;12.93;;;;;;;;;;5111694;28;20194;-78
2021/11/25 02:10:18;;;;;;;28.80;14.03;;;;;;;;;;5110994;28;20217;-78
2021/11/25 02:12:46;;;;;;;20.87;13.10;;;;;;;;;;5111472;28;20772;-79
2021/11/25 02:15:17;;;;;;;20.83;12.77;;;;;;;;;;5111384;27;20312;-78
2021/11/25 02:17:44;;;;;;;24.33;13.70;;;;;;;;;;5112437;28;20219;-79
2021/11/25 02:20:13;;;;;;;25.40;13.93;;;;;;;;;;5111911;28;20267;-78
2021/11/25 02:22:43;;;;;;;24.97;13.87;;;;;;;;;;5115131;27;20231;-78
2021/11/25 02:25:12;;;;;;;26.27;13.70;;;;;;;;;;5114934;28;20866;-78
2021/11/25 02:27:39;;;;;;;26.33;13.43;;;;;;;;;;5111380;28;20228;-78
2021/11/25 02:30:07;;;;;;;25.57;14.17;;;;;;;;;;5111601;28;20251;-78
2021/11/25 02:32:35;;;;;;;25.57;14.40;;;;;;;;;;5111441;28;20279;-78
2021/11/25 02:35:03;;;;;;;25.47;14.37;;;;;;;;;;5110751;28;20297;-78
2021/11/25 02:37:31;;;;;;;24.97;13.90;;;;;;;;;;5114318;28;20232;-78
2021/11/25 02:39:59;;;;;;;25.30;14.23;;;;;;;;;;5114815;28;20228;-78
2021/11/25 02:42:26;;;;;;;26.93;14.47;;;;;;;;;;5112226;28;20685;-79
2021/11/25 02:44:53;;;;;;;27.47;15.67;;;;;;;;;;5111801;28;20237;-78
2021/11/25 02:47:21;;;;;;;28.20;15.53;;;;;;;;;;5111301;28;20240;-78
2021/11/25 02:49:48;;;;;;;26.90;15.03;;;;;;;;;;5110725;28;20283;-78
2021/11/25 02:52:15;;;;;;;26.17;15.40;;;;;;;;;;5115072;27;20243;-78
2021/11/25 02:54:43;;;;;;;28.73;15.30;;;;;;;;;;5115409;27;20235;-78
2021/11/25 02:57:12;;;;;;;27.77;15.10;;;;;;;;;;5113562;28;20200;-78
2021/11/25 02:59:39;;;;;;;28.07;15.77;;;;;;;;;;5114777;27;20324;-79
2021/11/25 03:02:06;;;;;;;30.87;15.90;;;;;;;;;;5115332;28;20228;-78
2021/11/25 03:04:33;;;;;;;27.13;15.87;;;;;;;;;;5115051;27;20291;-78
2021/11/25 03:07:01;;;;;;;28.17;16.00;;;;;;;;;;5114402;28;20654;-78
2021/11/25 03:09:28;;;;;;;26.47;15.40;;;;;;;;;;5115150;27;20211;-78
2021/11/25 03:11:55;;;;;;;27.30;15.80;;;;;;;;;;5114629;27;20239;-78
2021/11/25 03:14:24;;;;;;;28.90;16.57;;;;;;;;;;5109149;28;20232;-78
2021/11/25 03:16:51;;;;;;;29.03;16.30;;;;;;;;;;5114979;27;20252;-78
2021/11/25 03:19:18;;;;;;;28.40;16.40;;;;;;;;;;5114926;27;20308;-78
2021/11/25 03:21:46;;;;;;;25.73;15.17;;;;;;;;;;5115511;28;20193;-78
2021/11/25 03:24:13;;;;;;;28.00;15.77;;;;;;;;;;5115698;28;20233;-79
2021/11/25 03:26:40;;;;;;;26.33;14.67;;;;;;;;;;5114755;28;20708;-79
2021/11/25 03:29:07;;;;;;;28.60;16.40;;;;;;;;;;5114876;28;20278;-79
2021/11/25 03:31:36;;;;;;;29.80;16.63;;;;;;;;;;5115575;27;20225;-78
2021/11/25 03:34:04;;;;;;;29.63;16.67;;;;;;;;;;5115390;27;20612;-78
2021/11/25 03:36:31;;;;;;;30.10;17.00;;;;;;;;;;5114983;28;20245;-78
2021/11/25 03:38:59;;;;;;;30.10;16.90;;;;;;;;;;5114779;28;20225;-78
2021/11/25 03:41:27;;;;;;;31.33;17.00;;;;;;;;;;5114739;27;20233;-78
2021/11/25 03:43:54;;;;;;;26.13;15.80;;;;;;;;;;5114905;27;20270;-78
2021/11/25 03:46:21;;;;;;;28.43;16.83;;;;;;;;;;5116415;27;20200;-78
2021/11/25 03:48:50;;;;;;;28.00;16.97;;;;;;;;;;5114942;27;20618;-79
2021/11/25 03:51:18;;;;;;;27.43;16.03;;;;;;;;;;5116088;27;20561;-78
2021/11/25 03:53:46;;;;;;;28.90;16.77;;;;;;;;;;5114725;28;20205;-78
2021/11/25 03:56:13;;;;;;;26.13;15.63;;;;;;;;;;5114055;27;20228;-78
2021/11/25 03:58:41;;;;;;;28.47;16.60;;;;;;;;;;5114839;28;20244;-79
2021/11/25 04:01:10;;;;;;;29.33;16.63;;;;;;;;;;5117668;27;20233;-78
2021/11/25 04:03:38;;;;;;;30.47;17.20;;;;;;;;;;5126186;27;20224;-78
2021/11/25 04:06:07;;;;;;;30.53;16.27;;;;;;;;;;5109836;28;20186;-78
2021/11/25 04:08:34;;;;;;;29.87;16.97;;;;;;;;;;5112678;28;20221;-78
2021/11/25 04:11:01;;;;;;;28.50;16.40;;;;;;;;;;5115231;27;20229;-78
2021/11/25 04:13:28;;;;;;;28.23;16.90;;;;;;;;;;5114500;28;20229;-78
2021/11/25 04:15:56;;;;;;;28.23;16.70;;;;;;;;;;5114823;27;20253;-79
2021/11/25 04:18:23;;;;;;;29.83;17.10;;;;;;;;;;5117632;27;20225;-79
2021/11/25 04:20:50;;;;;;;29.13;16.23;;;;;;;;;;5118608;27;20244;-78
2021/11/25 04:23:19;;;;;;;28.47;17.07;;;;;;;;;;5116837;27;20225;-78
2021/11/25 04:25:46;;;;;;;28.40;16.73;;;;;;;;;;5113570;27;20285;-79
2021/11/25 04:28:13;;;;;;;29.53;17.43;;;;;;;;;;5108380;28;20285;-79
2021/11/25 04:35:27;;;;;;;25.80;15.40;;;;;;;;;;5113426;28;20646;-79
2021/11/25 04:36:26;;;;;;;28.27;17.03;;;;;;;;;;5114024;27;20220;-78
2021/11/25 04:38:54;;;;;;;28.97;16.27;;;;;;;;;;5115535;27;20560;-79
2021/11/25 04:41:21;;;;;;;29.57;16.23;;;;;;;;;;5123218;27;20226;-78
2021/11/25 04:43:49;;;;;;;30.77;18.07;;;;;;;;;;5114781;27;20233;-78
2021/11/25 04:46:16;;;;;;;33.13;17.03;;;;;;;;;;5117252;27;20634;-78
2021/11/25 04:48:43;;;;;;;30.53;17.53;;;;;;;;;;5116785;27;20285;-78
2021/11/25 04:51:10;;;;;;;31.63;17.37;;;;;;;;;;5107117;27;20190;-79
2021/11/25 04:53:38;;;;;;;31.97;17.87;;;;;;;;;;5110617;27;20201;-79
2021/11/25 04:56:07;;;;;;;29.60;17.87;;;;;;;;;;5112523;28;20217;-79
2021/11/25 04:58:34;;;;;;;33.00;18.67;;;;;;;;;;5119185;27;20225;-79
2021/11/25 05:01:02;;;;;;;29.33;16.87;;;;;;;;;;5112737;28;20656;-79
2021/11/25 05:03:30;;;;;;;28.80;17.00;;;;;;;;;;5129455;27;20197;-79
2021/11/25 05:05:57;;;;;;;26.43;16.73;;;;;;;;;;5124698;27;20230;-78
2021/11/25 05:08:24;;;;;;;27.83;17.20;;;;;;;;;;5120907;27;20233;-78
2021/11/25 05:10:52;;;;;;;27.60;16.87;;;;;;;;;;5118626;27;20286;-79
2021/11/25 05:13:20;;;;;;;28.83;16.87;;;;;;;;;;5112510;27;20221;-79
2021/11/25 05:15:48;;;;;;;30.17;16.37;;;;;;;;;;5113016;28;20317;-78
2021/11/25 05:18:15;;;;;;;31.37;17.87;;;;;;;;;;5112414;28;20286;-78
2021/11/25 05:20:42;;;;;;;30.07;17.37;;;;;;;;;;5113096;27;20197;-77
2021/11/25 05:23:09;;;;;;;27.50;17.23;;;;;;;;;;5112257;27;20694;-79
2021/11/25 05:25:37;;;;;;;29.87;18.03;;;;;;;;;;5113672;27;20207;-79
2021/11/25 05:28:04;;;;;;;39.80;21.60;;;;;;;;;;5113224;28;20205;-80
2021/11/25 05:30:33;;;;;;;35.17;21.43;;;;;;;;;;5112584;27;20282;-79
2021/11/25 05:33:00;;;;;;;43.53;26.50;;;;;;;;;;5112874;28;20221;-77
2021/11/25 05:35:28;;;;;;;41.27;24.33;;;;;;;;;;5112146;27;20229;-79
2021/11/25 05:37:55;;;;;;;36.93;21.83;;;;;;;;;;5115042;27;20226;-79
2021/11/25 05:40:23;;;;;;;34.40;19.97;;;;;;;;;;5112061;27;20666;-78
2021/11/25 05:42:50;;;;;;;31.10;17.77;;;;;;;;;;5105288;28;20282;-78
2021/11/25 05:45:19;;;;;;;35.77;19.93;;;;;;;;;;5117051;27;20220;-79
2021/11/25 05:47:48;;;;;;;34.73;19.13;;;;;;;;;;5111796;28;20285;-79
2021/11/25 05:50:17;;;;;;;33.30;18.27;;;;;;;;;;5111698;28;20206;-78
2021/11/25 05:52:45;;;;;;;33.50;19.00;;;;;;;;;;5111841;28;20228;-78
2021/11/25 05:55:12;;;;;;;32.00;18.50;;;;;;;;;;5116756;27;20285;-78
2021/11/25 05:57:40;;;;;;;44.87;27.10;;;;;;;;;;5112372;28;20232;-79
2021/11/25 06:00:10;;;;;;;101.53;63.13;;;;;;;;;;5111545;27;20294;-78
2021/11/25 06:02:37;;;;;;;42.37;26.20;;;;;;;;;;5116072;27;20190;-78
2021/11/25 06:05:06;;;;;;;83.30;52.77;;;;;;;;;;5122354;27;20230;-78
2021/11/25 06:07:34;;;;;;;102.53;63.87;;;;;;;;;;5119808;27;20225;-77
2021/11/25 06:10:01;;;;;;;73.37;46.77;;;;;;;;;;5111767;27;20285;-77
2021/11/25 06:12:28;;;;;;;74.57;49.23;;;;;;;;;;5112357;28;20217;-76
2021/11/25 06:14:55;;;;;;;70.00;46.57;;;;;;;;;;5116922;27;20293;-78
2021/11/25 06:17:22;;;;;;;56.20;37.00;;;;;;;;;;5117611;27;20669;-76
2021/11/25 06:19:53;;;;;;;48.53;29.67;;;;;;;;;;5113772;27;20318;-78
2021/11/25 06:22:22;;;;;;;40.60;23.47;;;;;;;;;;5103250;28;20206;-78
2021/11/25 06:24:49;;;;;;;33.67;20.43;;;;;;;;;;5111154;28;20285;-78
2021/11/25 06:27:16;;;;;;;36.33;20.73;;;;;;;;;;5111311;28;20278;-78
2021/11/25 06:29:43;;;;;;;39.40;20.93;;;;;;;;;;5111085;28;20733;-77
2021/11/25 06:32:10;;;;;;;36.67;20.23;;;;;;;;;;5123332;27;20303;-77
2021/11/25 06:34:38;;;;;;;36.20;20.43;;;;;;;;;;5112055;27;20204;-77
2021/11/25 06:37:05;;;;;;;36.83;20.93;;;;;;;;;;5111267;28;20245;-78
2021/11/25 06:39:34;;;;;;;34.50;19.93;;;;;;;;;;5115363;28;20277;-79
2021/11/25 06:42:01;;;;;;;34.27;20.27;;;;;;;;;;5110614;28;20288;-77
2021/11/25 06:44:28;;;;;;;39.60;20.37;;;;;;;;;;5111574;28;20236;-79
2021/11/25 06:46:55;;;;;;;36.33;21.07;;;;;;;;;;5112318;28;20275;-77
2021/11/25 06:49:22;;;;;;;39.70;21.90;;;;;;;;;;5115891;28;20774;-77
2021/11/25 06:51:50;;;;;;;38.30;21.03;;;;;;;;;;5116164;28;20285;-77
2021/11/25 06:54:17;;;;;;;38.73;20.87;;;;;;;;;;5126692;28;20232;-77
2021/11/25 06:56:45;;;;;;;45.33;24.00;;;;;;;;;;5111437;28;20740;-77
2021/11/25 06:59:13;;;;;;;83.33;37.97;;;;;;;;;;5101998;28;20205;-76
2021/11/25 07:01:40;;;;;;;76.93;37.63;;;;;;;;;;5111959;28;20548;-76
2021/11/25 07:04:07;;;;;;;53.37;29.43;;;;;;;;;;5118096;28;20253;-77
2021/11/25 07:06:34;;;;;;;43.73;25.13;;;;;;;;;;5124839;28;20197;-77
2021/11/25 07:09:02;;;;;;;46.23;25.03;;;;;;;;;;5111044;28;20668;-77
2021/11/25 07:11:29;;;;;;;43.73;24.27;;;;;;;;;;5116380;28;20204;-76
2021/11/25 07:13:58;;;;;;;42.07;23.57;;;;;;;;;;5111802;28;20311;-77
2021/11/25 07:16:25;;;;;;;40.27;22.13;;;;;;;;;;5111010;28;20313;-76
2021/11/25 07:18:52;;;;;;;40.63;22.67;;;;;;;;;;5110475;28;20311;-76
2021/11/25 07:21:19;;;;;;;43.97;23.57;;;;;;;;;;5112008;28;20288;-76
2021/11/25 07:23:46;;;;;;;41.47;23.30;;;;;;;;;;5115613;28;20237;-77
2021/11/25 07:26:13;;;;;;;40.80;23.17;;;;;;;;;;5111507;28;20197;-76
2021/11/25 07:28:41;;;;;;;45.00;24.47;;;;;;;;;;5101119;28;20228;-76
2021/11/25 07:31:10;;;;;;;44.27;23.60;;;;;;;;;;5111049;28;20196;-76
2021/11/25 07:33:37;;;;;;;46.37;24.43;;;;;;;;;;5111399;28;20193;-76
2021/11/25 07:36:05;;;;;;;46.93;25.83;;;;;;;;;;5112115;28;20288;-76
2021/11/25 07:38:32;;;;;;;47.53;24.70;;;;;;;;;;5114206;28;20303;-76
2021/11/25 07:40:59;;;;;;;46.03;25.60;;;;;;;;;;5114438;28;20294;-77
2021/11/25 07:43:27;;;;;;;44.17;25.00;;;;;;;;;;5113990;28;20704;-77
2021/11/25 07:45:54;;;;;;;48.13;24.90;;;;;;;;;;5114774;27;20201;-76
2021/11/25 07:48:22;;;;;;;40.90;24.50;;;;;;;;;;5128311;27;20261;-77
2021/11/25 07:50:50;;;;;;;45.60;24.13;;;;;;;;;;5114649;27;20732;-77
2021/11/25 07:53:17;;;;;;;43.33;24.60;;;;;;;;;;5114879;28;20618;-77
2021/11/25 07:55:44;;;;;;;45.63;25.53;;;;;;;;;;5115341;27;20204;-77
2021/11/25 07:58:11;;;;;;;48.93;26.17;;;;;;;;;;5114314;28;20307;-77
2021/11/25 08:00:38;;;;;;;47.47;26.17;;;;;;;;;;5114902;28;20296;-76
2021/11/25 08:03:06;;;;;;;46.77;26.13;;;;;;;;;;5114541;27;20247;-77
2021/11/25 08:05:34;;;;;;;46.03;25.33;;;;;;;;;;5115134;28;20241;-77
2021/11/25 08:08:01;;;;;;;44.23;25.63;;;;;;;;;;5114371;27;20193;-76
2021/11/25 08:10:29;;;;;;;46.10;25.27;;;;;;;;;;5114182;27;20238;-76
2021/11/25 08:12:58;;;;;;;46.83;25.87;;;;;;;;;;5114881;27;20241;-76
2021/11/25 08:15:26;;;;;;;45.50;26.43;;;;;;;;;;5113538;28;20256;-77
2021/11/25 08:17:53;;;;;;;45.40;26.17;;;;;;;;;;5114241;28;20213;-77
2021/11/25 08:20:21;;;;;;;45.73;25.20;;;;;;;;;;5114080;28;20235;-77
2021/11/25 08:22:49;;;;;;;42.47;25.53;;;;;;;;;;5103012;28;20201;-77
2021/11/25 08:25:17;;;;;;;43.20;25.27;;;;;;;;;;5099939;28;20289;-77
2021/11/25 08:27:44;;;;;;;46.53;25.80;;;;;;;;;;5111815;28;20225;-78
2021/11/25 08:30:12;;;;;;;42.83;25.47;;;;;;;;;;5110869;28;20240;-77
2021/11/25 08:32:40;;;;;;;45.30;25.00;;;;;;;;;;5114261;28;20209;-76
2021/11/25 08:35:08;;;;;;;42.83;25.80;;;;;;;;;;5122469;27;20232;-77
2021/11/25 08:37:37;;;;;;;45.33;24.80;;;;;;;;;;5118389;27;20267;-77
2021/11/25 08:40:07;;;;;;;40.40;25.30;;;;;;;;;;5114634;27;20201;-77
2021/11/25 08:42:34;;;;;;;40.97;24.83;;;;;;;;;;5113880;27;20266;-77
2021/11/25 08:45:03;;;;;;;39.27;24.80;;;;;;;;;;5113599;28;20205;-77
2021/11/25 08:47:30;;;;;;;40.60;24.73;;;;;;;;;;5113731;28;20259;-77
2021/11/25 08:49:57;;;;;;;42.17;24.43;;;;;;;;;;5114654;27;20288;-77
2021/11/25 08:52:25;;;;;;;41.97;24.40;;;;;;;;;;5114084;28;20232;-77
2021/11/25 08:54:52;;;;;;;40.50;24.20;;;;;;;;;;5113677;28;20658;-77
2021/11/25 08:57:20;;;;;;;39.10;24.20;;;;;;;;;;5113334;28;20321;-77
2021/11/25 08:59:47;;;;;;;40.53;24.83;;;;;;;;;;5112714;28;20248;-77
2021/11/25 09:02:15;;;;;;;39.10;24.57;;;;;;;;;;5113274;28;20284;-77
2021/11/25 09:04:42;;;;;;;40.67;24.73;;;;;;;;;;5119083;27;20236;-77
2021/11/25 09:07:09;;;;;;;55.57;29.07;;;;;;;;;;5113770;27;20277;-77
2021/11/25 09:09:36;;;;;;;59.87;33.23;;;;;;;;;;5113420;28;20202;-76
2021/11/25 09:12:04;;;;;;;48.67;28.00;;;;;;;;;;5113767;28;20283;-76
2021/11/25 09:14:32;;;;;;;43.37;25.30;;;;;;;;;;5112411;28;20213;-77
2021/11/25 09:16:59;;;;;;;41.60;24.97;;;;;;;;;;5127183;27;20273;-77
2021/11/25 09:19:27;;;;;;;43.07;24.47;;;;;;;;;;5113189;28;20967;-77
2021/11/25 09:21:55;;;;;;;41.43;25.17;;;;;;;;;;5112709;28;20281;-76
2021/11/25 09:24:22;;;;;;;37.10;23.80;;;;;;;;;;5113885;27;20288;-77
2021/11/25 09:26:49;;;;;;;40.17;24.73;;;;;;;;;;5107694;28;20243;-77
2021/11/25 09:29:16;;;;;;;36.83;24.03;;;;;;;;;;5113116;28;20293;-75
2021/11/25 09:31:45;;;;;;;37.03;23.70;;;;;;;;;;5112702;28;20201;-77
2021/11/25 09:34:12;;;;;;;33.63;23.40;;;;;;;;;;5093289;28;20232;-77
2021/11/25 09:36:40;;;;;;;33.73;22.97;;;;;;;;;;5095067;28;20200;-78
2021/11/25 09:39:10;;;;;;;35.67;22.80;;;;;;;;;;5105298;28;20238;-79
2021/11/25 09:41:37;;;;;;;33.53;21.90;;;;;;;;;;5119105;27;20231;-77
2021/11/25 09:44:05;;;;;;;30.23;21.53;;;;;;;;;;5113403;27;20236;-79
2021/11/25 09:46:33;;;;;;;31.33;22.33;;;;;;;;;;5114512;27;20730;-78
2021/11/25 09:49:02;;;;;;;32.77;22.70;;;;;;;;;;5113777;27;20301;-78
2021/11/25 09:51:29;;;;;;;29.33;21.67;;;;;;;;;;5112697;28;20319;-78
2021/11/25 09:53:56;;;;;;;33.13;22.57;;;;;;;;;;5113157;27;20225;-77
2021/11/25 09:56:24;;;;;;;31.87;21.40;;;;;;;;;;5112379;28;20192;-77
2021/11/25 09:58:52;;;;;;;33.20;22.30;;;;;;;;;;5107961;28;20302;-78
2021/11/25 10:01:20;;;;;;;32.47;21.60;;;;;;;;;;5109286;28;20248;-78
2021/11/25 10:03:50;;;;;;;33.33;22.80;;;;;;;;;;5103100;27;20231;-78
2021/11/25 10:06:19;;;;;;;33.87;22.90;;;;;;;;;;5112305;28;20672;-78
2021/11/25 10:08:48;;;;;;;31.63;21.80;;;;;;;;;;5116094;27;20195;-78
2021/11/25 10:11:17;;;;;;;32.87;22.20;;;;;;;;;;5115173;27;20196;-78
2021/11/25 10:13:46;;;;;;;32.93;22.40;;;;;;;;;;5117177;27;20767;-77
2021/11/25 10:16:15;;;;;;;38.37;25.07;;;;;;;;;;5119335;27;20203;-78
2021/11/25 10:18:43;;;;;;;36.27;25.57;;;;;;;;;;5117891;27;20227;-78
2021/11/25 10:21:12;;;;;;;40.40;27.23;;;;;;;;;;5111360;28;20239;-77
2021/11/25 10:23:40;;;;;;;41.83;28.47;;;;;;;;;;5111908;28;20281;-77
2021/11/25 10:26:09;;;;;;;39.03;26.70;;;;;;;;;;5112021;28;20611;-78
2021/11/25 10:28:38;;;;;;;35.93;25.00;;;;;;;;;;5111612;28;20208;-77
2021/11/25 10:31:07;;;;;;;34.30;23.70;;;;;;;;;;5111549;28;20237;-78
2021/11/25 10:33:43;;;;;;;36.13;23.33;;;;;;;;;;5111760;28;20197;-78
2021/11/25 10:36:28;;;;;;;32.27;22.47;;;;;;;;;;5112469;28;20282;-78
2021/11/25 10:39:09;;;;;;;30.33;21.97;;;;;;;;;;5105048;28;20586;-77
2021/11/25 10:41:39;;;;;;;35.53;22.40;;;;;;;;;;5111299;28;20368;-78
2021/11/25 10:44:16;;;;;;;31.43;21.80;;;;;;;;;;5112106;28;20663;-78
2021/11/25 10:46:45;;;;;;;31.23;21.80;;;;;;;;;;5111123;28;20245;-77
2021/11/25 10:49:13;;;;;;;32.73;21.93;;;;;;;;;;5112064;28;20287;-78
2021/11/25 10:51:41;;;;;;;30.77;21.00;;;;;;;;;;5120875;28;20651;-78
2021/11/25 10:54:10;;;;;;;30.30;21.90;;;;;;;;;;5121166;28;20233;-78
2021/11/25 10:56:39;;;;;;;31.07;21.63;;;;;;;;;;5116440;28;20224;-78
2021/11/25 10:59:06;;;;;;;31.50;20.20;;;;;;;;;;5113169;28;20646;-78
2021/11/25 11:01:34;;;;;;;28.83;20.67;;;;;;;;;;5114641;28;20230;-77
2021/11/25 11:04:02;;;;;;;32.30;20.83;;;;;;;;;;5111505;28;20204;-78
2021/11/25 11:06:33;;;;;;;28.23;19.63;;;;;;;;;;5118794;28;20244;-78
2021/11/25 11:09:00;;;;;;;30.60;20.57;;;;;;;;;;5111142;28;20756;-78
2021/11/25 11:11:30;;;;;;;32.73;21.00;;;;;;;;;;5112890;28;20232;-77
2021/11/25 11:14:12;;;;;;;31.00;21.83;;;;;;;;;;5115444;28;20264;-78
2021/11/25 11:16:46;;;;;;;27.67;20.23;;;;;;;;;;5116379;27;20200;-77
2021/11/25 11:19:13;;;;;;;29.37;21.37;;;;;;;;;;5115834;28;20328;-77
2021/11/25 11:21:42;;;;;;;28.43;20.80;;;;;;;;;;5125928;27;20203;-78
2021/11/25 11:24:11;;;;;;;32.20;21.80;;;;;;;;;;5115099;27;20256;-78
2021/11/25 11:26:40;;;;;;;28.93;21.07;;;;;;;;;;5115650;27;20229;-78
2021/11/25 11:29:08;;;;;;;28.93;20.73;;;;;;;;;;5118377;27;20591;-79
2021/11/25 11:31:36;;;;;;;31.90;21.10;;;;;;;;;;5128705;27;20283;-79
2021/11/25 11:34:04;;;;;;;29.83;20.60;;;;;;;;;;5115274;28;20255;-78
2021/11/25 11:36:32;;;;;;;30.50;19.80;;;;;;;;;;5115417;28;20296;-79
2021/11/25 11:39:00;;;;;;;29.20;20.17;;;;;;;;;;5114958;28;20314;-78
2021/11/25 11:41:29;;;;;;;39.13;27.53;;;;;;;;;;5114737;27;20228;-79
2021/11/25 11:43:58;;;;;;;30.33;20.83;;;;;;;;;;5114501;27;20662;-80
2021/11/25 11:46:26;;;;;;;29.90;20.80;;;;;;;;;;5114496;28;20288;-79
2021/11/25 11:48:53;;;;;;;29.93;19.90;;;;;;;;;;5116178;27;20281;-79
2021/11/25 11:51:22;;;;;;;30.17;19.60;;;;;;;;;;5120552;27;20297;-80
2021/11/25 11:53:51;;;;;;;26.57;19.70;;;;;;;;;;5114267;28;20277;-80
2021/11/25 11:56:19;;;;;;;27.13;19.13;;;;;;;;;;5114053;28;20285;-79
2021/11/25 11:58:54;;;;;;;26.07;19.20;;;;;;;;;;5114445;27;20304;-80
2021/11/25 12:01:25;;;;;;;25.97;19.20;;;;;;;;;;5114282;28;20848;-79
2021/11/25 12:03:54;;;;;;;31.30;21.80;;;;;;;;;;5101210;28;20756;-80
2021/11/25 12:06:32;;;;;;;26.40;19.13;;;;;;;;;;5114155;28;20673;-80
2021/11/25 12:08:59;;;;;;;23.67;18.63;;;;;;;;;;5114411;27;20262;-80
2021/11/25 12:11:37;;;;;;;23.87;18.03;;;;;;;;;;5117971;27;20895;-80
2021/11/25 12:14:06;;;;;;;23.30;16.90;;;;;;;;;;5114491;28;20292;-78
2021/11/25 12:16:35;;;;;;;27.37;21.23;;;;;;;;;;5119866;27;20193;-78
2021/11/25 12:19:05;;;;;;;29.53;23.67;;;;;;;;;;5110279;28;20639;-78
2021/11/25 12:21:33;;;;;;;33.13;23.93;;;;;;;;;;5106798;28;20425;-78
2021/11/25 12:24:09;;;;;;;64.73;45.20;;;;;;;;;;5121084;27;20201;-78
2021/11/25 12:26:55;;;;;;;37.67;28.10;;;;;;;;;;5121994;27;20280;-78
2021/11/25 12:29:36;;;;;;;113.80;80.37;;;;;;;;;;5111684;27;20684;-79
2021/11/25 12:32:34;;;;;;;69.63;50.13;;;;;;;;;;5126026;27;20211;-81
2021/11/25 12:35:02;;;;;;;70.50;56.33;;;;;;;;;;5122616;27;20198;-80
2021/11/25 12:37:49;;;;;;;69.77;52.63;;;;;;;;;;5134736;27;20200;-80
2021/11/25 12:40:31;;;;;;;72.73;56.40;;;;;;;;;;5117492;27;20247;-81
2021/11/25 12:42:59;;;;;;;36.20;28.83;;;;;;;;;;5095827;27;20626;-80
2021/11/25 12:45:28;;;;;;;28.77;23.50;;;;;;;;;;5114066;28;20232;-80
2021/11/25 12:48:11;;;;;;;63.20;52.33;;;;;;;;;;5112913;28;20226;-80
2021/11/25 12:50:40;;;;;;;30.87;25.07;;;;;;;;;;5113775;28;20193;-80
2021/11/25 12:53:08;;;;;;;27.83;21.13;;;;;;;;;;5120730;27;20614;-80
2021/11/25 12:55:36;;;;;;;26.33;20.53;;;;;;;;;;5113687;27;20236;-80
2021/11/25 12:58:03;;;;;;;26.53;19.53;;;;;;;;;;5112082;28;20280;-80
2021/11/25 13:00:31;;;;;;;29.07;20.27;;;;;;;;;;5113739;28;20287;-81
2021/11/25 13:03:02;;;;;;;28.87;19.77;;;;;;;;;;5113184;28;20708;-81
2021/11/25 13:05:29;;;;;;;28.77;21.23;;;;;;;;;;5122613;27;20283;-80
2021/11/25 13:08:00;;;;;;;30.83;22.67;;;;;;;;;;5130863;27;20288;-82
2021/11/25 13:10:28;;;;;;;31.90;20.60;;;;;;;;;;5130734;27;20205;-81
2021/11/25 13:13:07;;;;;;;30.57;20.83;;;;;;;;;;5113592;27;20284;-81
2021/11/25 13:15:35;;;;;;;29.67;22.83;;;;;;;;;;5124074;27;20231;-81
2021/11/25 13:18:03;;;;;;;31.77;22.60;;;;;;;;;;5131812;27;20235;-80
2021/11/25 13:20:43;;;;;;;40.87;32.47;;;;;;;;;;5112132;28;20224;-81
2021/11/25 13:23:12;;;;;;;52.03;43.07;;;;;;;;;;5112680;28;20204;-81
2021/11/25 13:25:50;;;;;;;29.73;21.20;;;;;;;;;;5113550;28;20227;-81
2021/11/25 13:28:21;;;;;;;27.67;19.73;;;;;;;;;;5121460;27;20205;-80
2021/11/25 13:30:48;;;;;;;30.87;21.10;;;;;;;;;;5112650;28;20227;-80
2021/11/25 13:33:15;;;;;;;28.27;20.00;;;;;;;;;;5112627;28;20285;-80
2021/11/25 13:35:42;;;;;;;30.53;20.63;;;;;;;;;;5118516;27;20232;-80
2021/11/25 13:38:09;;;;;;;28.83;20.70;;;;;;;;;;5133574;27;20233;-80
2021/11/25 13:40:38;;;;;;;25.40;18.40;;;;;;;;;;5113807;27;20229;-80
2021/11/25 13:43:09;;;;;;;25.97;18.63;;;;;;;;;;5110413;28;20713;-81
2021/11/25 13:45:36;;;;;;;25.63;19.50;;;;;;;;;;5112402;27;20198;-81
2021/11/25 13:48:03;;;;;;;26.40;18.47;;;;;;;;;;5111801;28;20306;-80
2021/11/25 13:50:31;;;;;;;25.07;18.93;;;;;;;;;;5111579;28;20294;-81
2021/11/25 13:53:00;;;;;;;27.00;19.10;;;;;;;;;;5119933;27;20277;-81
2021/11/25 13:55:29;;;;;;;25.97;18.33;;;;;;;;;;5112853;28;20201;-81
2021/11/25 13:57:58;;;;;;;26.93;19.13;;;;;;;;;;5112712;28;20197;-81
2021/11/25 14:00:26;;;;;;;25.10;18.20;;;;;;;;;;5112369;28;20222;-81
2021/11/25 14:02:54;;;;;;;25.23;18.37;;;;;;;;;;5112299;28;20280;-81
2021/11/25 14:05:21;;;;;;;24.63;19.03;;;;;;;;;;5111867;28;20233;-80
2021/11/25 14:07:49;;;;;;;25.13;18.10;;;;;;;;;;5112831;28;20571;-81
2021/11/25 14:10:17;;;;;;;16.53;13.00;;;;;;;;;;5120946;27;20281;-80
2021/11/25 14:12:45;;;;;;;17.07;12.47;;;;;;;;;;5112646;28;20206;-80
2021/11/25 14:15:15;;;;;;;17.73;12.90;;;;;;;;;;5111839;27;20308;-80
2021/11/25 14:17:43;;;;;;;13.87;10.97;;;;;;;;;;5112677;28;20232;-80
2021/11/25 14:20:19;;;;;;;14.23;10.23;;;;;;;;;;5111655;28;20235;-81
2021/11/25 14:22:46;;;;;;;14.43;10.70;;;;;;;;;;5118896;27;20201;-81
2021/11/25 14:25:22;;;;;;;14.83;10.30;;;;;;;;;;5125334;27;20200;-81
2021/11/25 14:30:35;;;;;;;15.50;10.33;;;;;;;;;;5112310;28;20246;-81